GBSAS EGBJ-ZZZZ
Flight info
| Callsign | GBSAS |
|---|---|
| Flight time | N/A |
| Altitude | 2000 |
| Route | VFR HIGHNAM HUNTLEY ROSSONWYE |
| Aircraft | R44/L-VGD/C |
Departure
| Time | 2026-04-22 13:17 |
|---|---|
| Airport | Gloucestershire Airport (EGBJ) |
Arrival
| Time | N/A |
|---|---|
| Airport | ZZZZ |
| Time | Latitude | Longitude | Altitude | Speed | Heading |
|---|---|---|---|---|---|
| 2026-04-22 13:17 | 51.91773 | -2.72167 | 1555 ft | 142 kts | 271° |
| 2026-04-22 13:17 | 51.91841 | -2.73480 | 1485 ft | 140 kts | 272° |
| 2026-04-22 13:18 | 51.91903 | -2.74494 | 1510 ft | 135 kts | 272° |
| 2026-04-22 13:18 | 51.91961 | -2.76001 | 1447 ft | 134 kts | 268° |
| 2026-04-22 13:18 | 51.91916 | -2.77490 | 1410 ft | 133 kts | 258° |
| 2026-04-22 13:18 | 51.91785 | -2.78980 | 1363 ft | 133 kts | 255° |
| 2026-04-22 13:19 | 51.91613 | -2.80457 | 1296 ft | 133 kts | 250° |
| 2026-04-22 13:19 | 51.91446 | -2.81688 | 1235 ft | 133 kts | 253° |
| 2026-04-22 13:20 | 51.91419 | -2.82258 | 1167 ft | 137 kts | 264° |
| 2026-04-22 13:21 | 51.91658 | -2.83668 | 1018 ft | 115 kts | 313° |
| 2026-04-22 13:21 | 51.92123 | -2.84596 | 1134 ft | 100 kts | 330° |
| 2026-04-22 13:21 | 51.92688 | -2.85263 | 1222 ft | 100 kts | 327° |
| 2026-04-22 13:21 | 51.93143 | -2.86003 | 1333 ft | 100 kts | 321° |
| 2026-04-22 13:22 | 51.93392 | -2.86467 | 1364 ft | 103 kts | 323° |
| 2026-04-22 13:28 | 51.93393 | -2.86469 | 1361 ft | 103 kts | 323° |
| 2026-04-22 13:28 | 51.93715 | -2.86959 | 1202 ft | 111 kts | 327° |
| 2026-04-22 13:30 | 51.93740 | -2.86996 | 1201 ft | 110 kts | 327° |
| 2026-04-22 13:30 | 51.94327 | -2.87541 | 1138 ft | 88 kts | 359° |
| 2026-04-22 13:30 | 51.94899 | -2.87666 | 1093 ft | 78 kts | 10° |
| 2026-04-22 13:30 | 51.95409 | -2.87659 | 966 ft | 71 kts | 20° |
| 2026-04-22 13:31 | 51.95854 | -2.87591 | 818 ft | 58 kts | 27° |
| 2026-04-22 13:31 | 51.96144 | -2.87493 | 733 ft | 54 kts | 27° |
| 2026-04-22 13:31 | 51.96397 | -2.87443 | 693 ft | 51 kts | 23° |
| 2026-04-22 13:31 | 51.96482 | -2.87430 | 667 ft | 52 kts | 24° |
| 2026-04-22 13:32 | 51.96785 | -2.87355 | 670 ft | 39 kts | 34° |
| 2026-04-22 13:32 | 51.96974 | -2.87186 | 617 ft | 26 kts | 59° |
| 2026-04-22 13:32 | 51.97079 | -2.86995 | 537 ft | 21 kts | 63° |
| 2026-04-22 13:32 | 51.97099 | -2.86952 | 527 ft | 16 kts | 64° |
| 2026-04-22 13:33 | 51.97135 | -2.86861 | 471 ft | 11 kts | 68° |
| 2026-04-22 13:33 | 51.97166 | -2.86759 | 390 ft | 10 kts | 72° |
| 2026-04-22 13:33 | 51.97178 | -2.86714 | 344 ft | 1 kts | 74° |
| 2026-04-22 13:34 | 51.97178 | -2.86712 | 344 ft | 4 kts | 77° |
| 2026-04-22 13:34 | 51.97182 | -2.86701 | 346 ft | 0 kts | 76° |